sensor_id;sensor_type;location;lat;lon;timestamp;pressure;altitude;pressure_sealevel;temperature;humidity
49973;BME280;65693;49.798;10.968;2023-01-29T00:00:20;99353.56;;;5.56;56.65
49973;BME280;65693;49.798;10.968;2023-01-29T00:02:47;99360.47;;;5.59;56.49
49973;BME280;65693;49.798;10.968;2023-01-29T00:05:13;99354.38;;;5.58;56.51
49973;BME280;65693;49.798;10.968;2023-01-29T00:07:40;99354.31;;;5.60;56.62
49973;BME280;65693;49.798;10.968;2023-01-29T00:10:09;99343.94;;;5.55;56.75
49973;BME280;65693;49.798;10.968;2023-01-29T00:12:36;99343.88;;;5.56;56.35
49973;BME280;65693;49.798;10.968;2023-01-29T00:15:03;99349.19;;;5.55;56.72
49973;BME280;65693;49.798;10.968;2023-01-29T00:17:30;99342.97;;;5.58;56.41
49973;BME280;65693;49.798;10.968;2023-01-29T00:19:56;99346.44;;;5.60;56.30
49973;BME280;65693;49.798;10.968;2023-01-29T00:22:23;99343.84;;;5.58;56.49
49973;BME280;65693;49.798;10.968;2023-01-29T00:24:49;99344.75;;;5.57;56.52
49973;BME280;65693;49.798;10.968;2023-01-29T00:27:17;99340.41;;;5.56;56.48
49973;BME280;65693;49.798;10.968;2023-01-29T00:29:43;99336.06;;;5.55;56.60
49973;BME280;65693;49.798;10.968;2023-01-29T00:32:26;99337.81;;;5.54;56.52
49973;BME280;65693;49.798;10.968;2023-01-29T00:34:53;99334.25;;;5.57;56.48
49973;BME280;65693;49.798;10.968;2023-01-29T00:37:19;99332.50;;;5.56;56.54
49973;BME280;65693;49.798;10.968;2023-01-29T00:39:45;99322.94;;;5.53;56.39
49973;BME280;65693;49.798;10.968;2023-01-29T00:42:12;99328.28;;;5.49;56.44
49973;BME280;65693;49.798;10.968;2023-01-29T00:44:59;99330.81;;;5.53;56.47
49973;BME280;65693;49.798;10.968;2023-01-29T00:47:26;99322.06;;;5.53;56.35
49973;BME280;65693;49.798;10.968;2023-01-29T00:49:58;99326.47;;;5.52;56.55
49973;BME280;65693;49.798;10.968;2023-01-29T00:52:25;99332.59;;;5.53;56.46
49973;BME280;65693;49.798;10.968;2023-01-29T00:54:52;99338.72;;;5.52;56.45
49973;BME280;65693;49.798;10.968;2023-01-29T00:57:19;99326.47;;;5.52;56.37
49973;BME280;65693;49.798;10.968;2023-01-29T00:59:45;99324.72;;;5.53;56.45
49973;BME280;65693;49.798;10.968;2023-01-29T01:02:13;99318.59;;;5.51;56.54
49973;BME280;65693;49.798;10.968;2023-01-29T01:04:57;99303.66;;;5.53;56.51
49973;BME280;65693;49.798;10.968;2023-01-29T01:07:26;99303.78;;;5.48;56.62
49973;BME280;65693;49.798;10.968;2023-01-29T01:09:53;99306.34;;;5.50;56.59
49973;BME280;65693;49.798;10.968;2023-01-29T01:12:37;99308.06;;;5.51;56.42
49973;BME280;65693;49.798;10.968;2023-01-29T01:15:04;99304.59;;;5.50;56.61
49973;BME280;65693;49.798;10.968;2023-01-29T01:17:32;99306.34;;;5.50;56.48
49973;BME280;65693;49.798;10.968;2023-01-29T01:19:59;99306.34;;;5.50;56.56
49973;BME280;65693;49.798;10.968;2023-01-29T01:22:26;99311.75;;;5.45;56.67
49973;BME280;65693;49.798;10.968;2023-01-29T01:24:52;99309.88;;;5.49;56.65
49973;BME280;65693;49.798;10.968;2023-01-29T01:27:18;99324.75;;;5.50;56.74
49973;BME280;65693;49.798;10.968;2023-01-29T01:29:45;99323.91;;;5.49;56.46
49973;BME280;65693;49.798;10.968;2023-01-29T01:32:12;99322.22;;;5.47;56.59
49973;BME280;65693;49.798;10.968;2023-01-29T01:34:39;99319.66;;;5.44;56.54
49973;BME280;65693;49.798;10.968;2023-01-29T01:37:06;99309.97;;;5.46;56.50
49973;BME280;65693;49.798;10.968;2023-01-29T01:39:32;99311.75;;;5.45;56.60
49973;BME280;65693;49.798;10.968;2023-01-29T01:41:59;99311.69;;;5.47;56.58
49973;BME280;65693;49.798;10.968;2023-01-29T01:44:50;99316.09;;;5.46;56.67
49973;BME280;65693;49.798;10.968;2023-01-29T01:47:19;99319.63;;;5.45;56.39
49973;BME280;65693;49.798;10.968;2023-01-29T01:49:49;99318.78;;;5.43;56.82
49973;BME280;65693;49.798;10.968;2023-01-29T01:52:16;99317.00;;;5.45;56.48
49973;BME280;65693;49.798;10.968;2023-01-29T01:54:44;99308.25;;;5.45;56.48
49973;BME280;65693;49.798;10.968;2023-01-29T01:57:14;99310.88;;;5.45;56.45
49973;BME280;65693;49.798;10.968;2023-01-29T01:59:45;99301.44;;;5.37;56.57
49973;BME280;65693;49.798;10.968;2023-01-29T02:02:14;99302.16;;;5.42;56.49
49973;BME280;65693;49.798;10.968;2023-01-29T02:05:00;99310.97;;;5.41;56.74
49973;BME280;65693;49.798;10.968;2023-01-29T02:07:46;99310.06;;;5.42;56.57
49973;BME280;65693;49.798;10.968;2023-01-29T02:10:39;99301.34;;;5.40;56.55
49973;BME280;65693;49.798;10.968;2023-01-29T02:13:07;99297.81;;;5.41;56.41
49973;BME280;65693;49.798;10.968;2023-01-29T02:15:34;99300.44;;;5.41;56.46
49973;BME280;65693;49.798;10.968;2023-01-29T02:18:00;99288.13;;;5.42;56.89
49973;BME280;65693;49.798;10.968;2023-01-29T02:20:29;99289.94;;;5.41;56.59
49973;BME280;65693;49.798;10.968;2023-01-29T02:23:11;99294.38;;;5.39;56.58
49973;BME280;65693;49.798;10.968;2023-01-29T02:25:58;99290.84;;;5.40;56.59
49973;BME280;65693;49.798;10.968;2023-01-29T02:28:37;99289.94;;;5.40;56.76
49973;BME280;65693;49.798;10.968;2023-01-29T02:31:08;99287.38;;;5.38;56.59
49973;BME280;65693;49.798;10.968;2023-01-29T02:33:47;99290.06;;;5.35;56.72
49973;BME280;65693;49.798;10.968;2023-01-29T02:36:20;99295.28;;;5.37;56.63
49973;BME280;65693;49.798;10.968;2023-01-29T02:38:59;99302.34;;;5.36;56.63
49973;BME280;65693;49.798;10.968;2023-01-29T02:41:30;99297.94;;;5.35;56.54
49973;BME280;65693;49.798;10.968;2023-01-29T02:44:05;99290.91;;;5.37;56.41
49973;BME280;65693;49.798;10.968;2023-01-29T02:46:38;99293.59;;;5.34;56.74
49973;BME280;65693;49.798;10.968;2023-01-29T02:49:11;99290.97;;;5.34;56.69
49973;BME280;65693;49.798;10.968;2023-01-29T02:51:45;99291.84;;;5.35;56.61
49973;BME280;65693;49.798;10.968;2023-01-29T02:54:26;99297.06;;;5.36;56.47
49973;BME280;65693;49.798;10.968;2023-01-29T02:56:57;99286.59;;;5.33;56.41
49973;BME280;65693;49.798;10.968;2023-01-29T02:59:30;99286.59;;;5.35;56.31
49973;BME280;65693;49.798;10.968;2023-01-29T03:02:02;99290.97;;;5.34;56.50
49973;BME280;65693;49.798;10.968;2023-01-29T03:04:35;99296.19;;;5.36;56.47
49973;BME280;65693;49.798;10.968;2023-01-29T03:07:09;99301.53;;;5.33;56.48
49973;BME280;65693;49.798;10.968;2023-01-29T03:09:59;99298.03;;;5.32;56.55
49973;BME280;65693;49.798;10.968;2023-01-29T03:12:28;99288.41;;;5.31;56.57
49973;BME280;65693;49.798;10.968;2023-01-29T03:15:01;99292.78;;;5.32;56.48
49973;BME280;65693;49.798;10.968;2023-01-29T03:17:42;99293.66;;;5.33;56.35
49973;BME280;65693;49.798;10.968;2023-01-29T03:20:13;99296.31;;;5.31;56.64
49973;BME280;65693;49.798;10.968;2023-01-29T03:22:45;99293.66;;;5.33;56.54
49973;BME280;65693;49.798;10.968;2023-01-29T03:25:17;99293.69;;;5.31;56.53
49973;BME280;65693;49.798;10.968;2023-01-29T03:28:05;99305.06;;;5.32;56.26
49973;BME280;65693;49.798;10.968;2023-01-29T03:30:53;99296.31;;;5.31;56.24
49973;BME280;65693;49.798;10.968;2023-01-29T03:33:43;99301.66;;;5.28;56.78
49973;BME280;65693;49.798;10.968;2023-01-29T03:36:14;99308.63;;;5.29;56.53
49973;BME280;65693;49.798;10.968;2023-01-29T03:38:42;99308.63;;;5.29;56.50
49973;BME280;65693;49.798;10.968;2023-01-29T03:41:13;99303.44;;;5.27;56.62
49973;BME280;65693;49.798;10.968;2023-01-29T03:43:51;99305.16;;;5.28;56.36
49973;BME280;65693;49.798;10.968;2023-01-29T03:46:26;99309.53;;;5.28;56.52
49973;BME280;65693;49.798;10.968;2023-01-29T03:48:58;99323.56;;;5.28;56.38
49973;BME280;65693;49.798;10.968;2023-01-29T03:51:31;99323.56;;;5.28;56.37
49973;BME280;65693;49.798;10.968;2023-01-29T03:54:06;99330.56;;;5.28;56.68
49973;BME280;65693;49.798;10.968;2023-01-29T03:56:44;99324.50;;;5.24;56.46
49973;BME280;65693;49.798;10.968;2023-01-29T03:59:21;99326.19;;;5.27;56.53
49973;BME280;65693;49.798;10.968;2023-01-29T04:01:55;99329.72;;;5.26;56.45
49973;BME280;65693;49.798;10.968;2023-01-29T04:04:26;99320.97;;;5.25;56.43
49973;BME280;65693;49.798;10.968;2023-01-29T04:06:55;99320.22;;;5.22;56.45
49973;BME280;65693;49.798;10.968;2023-01-29T04:09:29;99317.53;;;5.23;56.54
49973;BME280;65693;49.798;10.968;2023-01-29T04:12:01;99324.56;;;5.23;56.35
49973;BME280;65693;49.798;10.968;2023-01-29T04:14:30;99332.44;;;5.23;56.65
49973;BME280;65693;49.798;10.968;2023-01-29T04:17:01;99339.44;;;5.22;56.54
49973;BME280;65693;49.798;10.968;2023-01-29T04:19:28;99333.34;;;5.22;56.48
49973;BME280;65693;49.798;10.968;2023-01-29T04:22:02;99339.44;;;5.22;56.33
49973;BME280;65693;49.798;10.968;2023-01-29T04:24:29;99330.66;;;5.23;56.44
49973;BME280;65693;49.798;10.968;2023-01-29T04:27:05;99336.03;;;5.19;56.68
49973;BME280;65693;49.798;10.968;2023-01-29T04:29:46;99328.13;;;5.20;56.37
49973;BME280;65693;49.798;10.968;2023-01-29T04:32:21;99322.13;;;5.15;56.50
49973;BME280;65693;49.798;10.968;2023-01-29T04:34:58;99312.38;;;5.19;56.27
49973;BME280;65693;49.798;10.968;2023-01-29T04:37:34;99317.72;;;5.16;56.64
49973;BME280;65693;49.798;10.968;2023-01-29T04:40:09;99310.72;;;5.14;56.60
49973;BME280;65693;49.798;10.968;2023-01-29T04:42:46;99306.34;;;5.15;56.48
49973;BME280;65693;49.798;10.968;2023-01-29T04:45:19;99300.13;;;5.18;56.54
49973;BME280;65693;49.798;10.968;2023-01-29T04:47:56;99292.38;;;5.13;56.71
49973;BME280;65693;49.798;10.968;2023-01-29T04:50:28;99287.94;;;5.15;56.58
49973;BME280;65693;49.798;10.968;2023-01-29T04:53:00;99288.72;;;5.19;56.53
49973;BME280;65693;49.798;10.968;2023-01-29T04:55:34;99295.78;;;5.17;56.65
49973;BME280;65693;49.798;10.968;2023-01-29T04:58:08;99292.25;;;5.18;56.48
49973;BME280;65693;49.798;10.968;2023-01-29T05:00:39;99291.34;;;5.19;56.33
49973;BME280;65693;49.798;10.968;2023-01-29T05:03:09;99289.63;;;5.18;56.18
49973;BME280;65693;49.798;10.968;2023-01-29T05:05:39;99285.25;;;5.17;56.21
49973;BME280;65693;49.798;10.968;2023-01-29T05:08:08;99276.63;;;5.13;56.47
49973;BME280;65693;49.798;10.968;2023-01-29T05:10:37;99281.81;;;5.14;56.65
49973;BME280;65693;49.798;10.968;2023-01-29T05:13:05;99277.47;;;5.13;56.64
49973;BME280;65693;49.798;10.968;2023-01-29T05:15:37;99275.75;;;5.12;56.48
49973;BME280;65693;49.798;10.968;2023-01-29T05:18:04;99273.03;;;5.16;56.48
49973;BME280;65693;49.798;10.968;2023-01-29T05:20:36;99272.13;;;5.17;56.42
49973;BME280;65693;49.798;10.968;2023-01-29T05:23:03;99251.19;;;5.13;56.47
49973;BME280;65693;49.798;10.968;2023-01-29T05:25:31;99252.09;;;5.12;56.44
49973;BME280;65693;49.798;10.968;2023-01-29T05:27:58;99243.28;;;5.15;56.39
49973;BME280;65693;49.798;10.968;2023-01-29T05:30:34;99245.09;;;5.13;56.59
49973;BME280;65693;49.798;10.968;2023-01-29T05:33:01;99243.28;;;5.15;56.17
49973;BME280;65693;49.798;10.968;2023-01-29T05:35:28;99233.69;;;5.12;56.62
49973;BME280;65693;49.798;10.968;2023-01-29T05:37:57;99237.22;;;5.11;56.50
49973;BME280;65693;49.798;10.968;2023-01-29T05:40:24;99242.44;;;5.13;56.44
49973;BME280;65693;49.798;10.968;2023-01-29T05:42:50;99252.19;;;5.08;56.79
49973;BME280;65693;49.798;10.968;2023-01-29T05:45:17;99246.09;;;5.07;56.56
49973;BME280;65693;49.798;10.968;2023-01-29T05:47:44;99251.34;;;5.07;56.22
49973;BME280;65693;49.798;10.968;2023-01-29T05:50:11;99253.91;;;5.09;56.35
49973;BME280;65693;49.798;10.968;2023-01-29T05:52:38;99263.66;;;5.05;56.45
49973;BME280;65693;49.798;10.968;2023-01-29T05:55:07;99262.69;;;5.08;56.33
49973;BME280;65693;49.798;10.968;2023-01-29T05:57:34;99267.06;;;5.09;56.57
49973;BME280;65693;49.798;10.968;2023-01-29T06:00:01;99259.22;;;5.07;56.28
49973;BME280;65693;49.798;10.968;2023-01-29T06:02:29;99257.50;;;5.06;56.34
49973;BME280;65693;49.798;10.968;2023-01-29T06:04:55;99264.56;;;5.04;56.39
49973;BME280;65693;49.798;10.968;2023-01-29T06:07:22;99271.56;;;5.04;56.58
49973;BME280;65693;49.798;10.968;2023-01-29T06:09:48;99282.88;;;5.07;56.41
49973;BME280;65693;49.798;10.968;2023-01-29T06:12:16;99275.91;;;5.06;56.59
49973;BME280;65693;49.798;10.968;2023-01-29T06:14:42;99281.16;;;5.06;56.65
49973;BME280;65693;49.798;10.968;2023-01-29T06:17:09;99267.13;;;5.07;56.28
49973;BME280;65693;49.798;10.968;2023-01-29T06:19:35;99272.41;;;5.06;56.65
49973;BME280;65693;49.798;10.968;2023-01-29T06:22:02;99281.16;;;5.06;56.47
49973;BME280;65693;49.798;10.968;2023-01-29T06:24:28;99274.16;;;5.05;56.51
49973;BME280;65693;49.798;10.968;2023-01-29T06:26:54;99276.81;;;5.05;56.51
49973;BME280;65693;49.798;10.968;2023-01-29T06:29:22;99285.53;;;5.06;56.39
49973;BME280;65693;49.798;10.968;2023-01-29T06:31:49;99283.81;;;5.05;56.28
49973;BME280;65693;49.798;10.968;2023-01-29T06:34:15;99287.34;;;5.04;56.25
49973;BME280;65693;49.798;10.968;2023-01-29T06:36:41;99283.09;;;4.98;56.54
49973;BME280;65693;49.798;10.968;2023-01-29T06:39:08;99281.22;;;5.03;56.36
49973;BME280;65693;49.798;10.968;2023-01-29T06:41:34;99289.13;;;5.03;56.34
49973;BME280;65693;49.798;10.968;2023-01-29T06:44:01;99277.75;;;5.01;56.36
49973;BME280;65693;49.798;10.968;2023-01-29T06:46:29;99284.72;;;5.02;56.47
49973;BME280;65693;49.798;10.968;2023-01-29T06:48:57;99286.53;;;5.00;56.28
49973;BME280;65693;49.798;10.968;2023-01-29T06:51:23;99287.44;;;4.99;56.71
49973;BME280;65693;49.798;10.968;2023-01-29T06:53:49;99290.00;;;5.02;56.25
49973;BME280;65693;49.798;10.968;2023-01-29T06:56:18;99278.66;;;5.00;56.47
49973;BME280;65693;49.798;10.968;2023-01-29T06:58:45;99291.78;;;5.00;56.37
49973;BME280;65693;49.798;10.968;2023-01-29T07:01:11;99287.50;;;4.97;56.58
49973;BME280;65693;49.798;10.968;2023-01-29T07:03:39;99279.63;;;4.96;56.30
49973;BME280;65693;49.798;10.968;2023-01-29T07:06:07;99279.56;;;4.99;56.68
49973;BME280;65693;49.798;10.968;2023-01-29T07:08:35;99280.44;;;4.99;56.33
49973;BME280;65693;49.798;10.968;2023-01-29T07:11:02;99275.25;;;4.96;56.58
49973;BME280;65693;49.798;10.968;2023-01-29T07:13:29;99267.31;;;4.99;56.49
49973;BME280;65693;49.798;10.968;2023-01-29T07:15:57;99279.63;;;4.96;56.51
49973;BME280;65693;49.798;10.968;2023-01-29T07:18:24;99280.47;;;4.98;56.25
49973;BME280;65693;49.798;10.968;2023-01-29T07:20:52;99278.72;;;4.98;56.67
49973;BME280;65693;49.798;10.968;2023-01-29T07:23:18;99293.59;;;4.98;56.46
49973;BME280;65693;49.798;10.968;2023-01-29T07:25:45;99295.47;;;4.93;56.52
49973;BME280;65693;49.798;10.968;2023-01-29T07:28:14;99294.69;;;4.89;53.47
49973;BME280;65693;49.798;10.968;2023-01-29T07:30:40;99299.03;;;4.90;53.84
49973;BME280;65693;49.798;10.968;2023-01-29T07:33:08;99301.72;;;4.89;54.72
49973;BME280;65693;49.798;10.968;2023-01-29T07:35:36;99299.13;;;4.85;54.97
49973;BME280;65693;49.798;10.968;2023-01-29T07:38:04;99308.75;;;4.87;55.38
49973;BME280;65693;49.798;10.968;2023-01-29T07:40:31;99307.88;;;4.86;53.35
49973;BME280;65693;49.798;10.968;2023-01-29T07:42:58;99314.03;;;4.87;54.23
49973;BME280;65693;49.798;10.968;2023-01-29T07:45:24;99314.84;;;4.89;54.57
49973;BME280;65693;49.798;10.968;2023-01-29T07:47:51;99319.19;;;4.90;55.20
49973;BME280;65693;49.798;10.968;2023-01-29T07:50:18;99311.31;;;4.90;55.26
49973;BME280;65693;49.798;10.968;2023-01-29T07:52:45;99311.25;;;4.91;55.52
49973;BME280;65693;49.798;10.968;2023-01-29T07:55:13;99316.41;;;4.96;55.16
49973;BME280;65693;49.798;10.968;2023-01-29T07:57:39;99305.00;;;4.97;55.73
49973;BME280;65693;49.798;10.968;2023-01-29T08:00:07;99298.81;;;4.99;55.78
49973;BME280;65693;49.798;10.968;2023-01-29T08:02:34;99304.00;;;5.03;55.54
49973;BME280;65693;49.798;10.968;2023-01-29T08:05:00;99296.09;;;5.04;55.66
49973;BME280;65693;49.798;10.968;2023-01-29T08:07:27;99293.47;;;5.04;55.81
49973;BME280;65693;49.798;10.968;2023-01-29T08:09:53;99288.13;;;5.07;55.61
49973;BME280;65693;49.798;10.968;2023-01-29T08:12:21;99292.50;;;5.07;55.71
49973;BME280;65693;49.798;10.968;2023-01-29T08:14:48;99301.28;;;5.07;55.64
49973;BME280;65693;49.798;10.968;2023-01-29T08:17:14;99297.69;;;5.10;55.73
49973;BME280;65693;49.798;10.968;2023-01-29T08:19:41;99302.09;;;5.09;55.68
49973;BME280;65693;49.798;10.968;2023-01-29T08:22:08;99316.94;;;5.12;56.21
49973;BME280;65693;49.798;10.968;2023-01-29T08:24:34;99316.94;;;5.12;55.73
49973;BME280;65693;49.798;10.968;2023-01-29T08:27:01;99321.31;;;5.11;56.02
49973;BME280;65693;49.798;10.968;2023-01-29T08:29:28;99333.59;;;5.11;55.83
49973;BME280;65693;49.798;10.968;2023-01-29T08:31:55;99336.22;;;5.11;55.93
49973;BME280;65693;49.798;10.968;2023-01-29T08:34:21;99343.25;;;5.10;56.11
49973;BME280;65693;49.798;10.968;2023-01-29T08:36:48;99342.34;;;5.11;56.11
49973;BME280;65693;49.798;10.968;2023-01-29T08:39:14;99341.44;;;5.12;56.11
49973;BME280;65693;49.798;10.968;2023-01-29T08:41:41;99340.53;;;5.13;56.04
49973;BME280;65693;49.798;10.968;2023-01-29T08:44:07;99341.41;;;5.14;56.45
49973;BME280;65693;49.798;10.968;2023-01-29T08:46:35;99340.53;;;5.13;56.14
49973;BME280;65693;49.798;10.968;2023-01-29T08:49:04;99345.78;;;5.13;56.12
49973;BME280;65693;49.798;10.968;2023-01-29T08:51:31;99344.94;;;5.13;56.19
49973;BME280;65693;49.798;10.968;2023-01-29T08:53:57;99358.09;;;5.13;56.64
49973;BME280;65693;49.798;10.968;2023-01-29T08:56:24;99363.28;;;5.14;56.63
49973;BME280;65693;49.798;10.968;2023-01-29T08:58:51;99357.19;;;5.14;56.65
49973;BME280;65693;49.798;10.968;2023-01-29T09:01:17;99352.75;;;5.16;56.40
49973;BME280;65693;49.798;10.968;2023-01-29T09:03:45;99352.75;;;5.16;56.55
49973;BME280;65693;49.798;10.968;2023-01-29T09:06:13;99351.88;;;5.16;56.40
49973;BME280;65693;49.798;10.968;2023-01-29T09:08:40;99350.13;;;5.16;56.53
49973;BME280;65693;49.798;10.968;2023-01-29T09:11:06;99346.63;;;5.16;56.40
49973;BME280;65693;49.798;10.968;2023-01-29T09:13:33;99338.72;;;5.16;56.82
49973;BME280;65693;49.798;10.968;2023-01-29T09:16:00;99336.09;;;5.16;56.59
49973;BME280;65693;49.798;10.968;2023-01-29T09:18:27;99338.72;;;5.16;56.62
49973;BME280;65693;49.798;10.968;2023-01-29T09:20:55;99324.75;;;5.15;56.63
49973;BME280;65693;49.798;10.968;2023-01-29T09:23:22;99331.75;;;5.14;56.75
49973;BME280;65693;49.798;10.968;2023-01-29T09:25:48;99323.91;;;5.13;56.57
49973;BME280;65693;49.798;10.968;2023-01-29T09:28:15;99319.50;;;5.15;57.01
49973;BME280;65693;49.798;10.968;2023-01-29T09:30:42;99308.97;;;5.15;56.81
49973;BME280;65693;49.798;10.968;2023-01-29T09:33:09;99301.94;;;5.16;56.73
49973;BME280;65693;49.798;10.968;2023-01-29T09:35:35;99284.44;;;5.14;56.74
49973;BME280;65693;49.798;10.968;2023-01-29T09:38:03;99287.06;;;5.14;56.87
49973;BME280;65693;49.798;10.968;2023-01-29T09:40:34;99280.09;;;5.13;56.60
49973;BME280;65693;49.798;10.968;2023-01-29T09:43:06;99282.69;;;5.15;56.76
49973;BME280;65693;49.798;10.968;2023-01-29T09:45:37;99290.59;;;5.13;56.90
49973;BME280;65693;49.798;10.968;2023-01-29T09:48:10;99308.09;;;5.14;56.86
49973;BME280;65693;49.798;10.968;2023-01-29T09:50:39;99314.25;;;5.50;57.88
49973;BME280;65693;49.798;10.968;2023-01-29T09:53:15;99319.56;;;5.48;56.67
49973;BME280;65693;49.798;10.968;2023-01-29T09:55:45;99317.06;;;5.42;56.40
49973;BME280;65693;49.798;10.968;2023-01-29T09:58:17;99322.47;;;5.37;56.84
49973;BME280;65693;49.798;10.968;2023-01-29T10:00:52;99319.88;;;5.34;57.09
49973;BME280;65693;49.798;10.968;2023-01-29T10:03:40;99337.50;;;5.31;57.25
49973;BME280;65693;49.798;10.968;2023-01-29T10:06:20;99341.06;;;5.28;57.23
49973;BME280;65693;49.798;10.968;2023-01-29T10:09:12;99336.72;;;5.27;57.07
49973;BME280;65693;49.798;10.968;2023-01-29T10:11:50;99338.53;;;5.25;57.00
49973;BME280;65693;49.798;10.968;2023-01-29T10:14:27;99349.88;;;5.25;57.10
49973;BME280;65693;49.798;10.968;2023-01-29T10:17:06;99361.31;;;5.24;57.20
49973;BME280;65693;49.798;10.968;2023-01-29T10:19:49;99363.88;;;5.27;56.91
49973;BME280;65693;49.798;10.968;2023-01-29T10:22:43;99357.78;;;5.25;57.00
49973;BME280;65693;49.798;10.968;2023-01-29T10:25:13;99349.88;;;5.25;57.21
49973;BME280;65693;49.798;10.968;2023-01-29T10:27:46;99335.00;;;5.26;57.31
49973;BME280;65693;49.798;10.968;2023-01-29T10:30:25;99324.50;;;5.24;57.06
49973;BME280;65693;49.798;10.968;2023-01-29T10:32:54;99319.22;;;5.26;57.04
49973;BME280;65693;49.798;10.968;2023-01-29T10:35:27;99313.06;;;5.27;56.95
49973;BME280;65693;49.798;10.968;2023-01-29T10:37:57;99315.72;;;5.25;56.90
49973;BME280;65693;49.798;10.968;2023-01-29T10:40:36;99303.47;;;5.24;57.20
49973;BME280;65693;49.798;10.968;2023-01-29T10:43:06;99298.31;;;5.21;57.04
49973;BME280;65693;49.798;10.968;2023-01-29T10:45:40;99287.75;;;5.23;57.26
49973;BME280;65693;49.798;10.968;2023-01-29T10:48:34;99296.56;;;5.22;56.97
49973;BME280;65693;49.798;10.968;2023-01-29T10:51:09;99294.81;;;5.21;56.99
49973;BME280;65693;49.798;10.968;2023-01-29T10:53:47;99289.56;;;5.21;56.93
49973;BME280;65693;49.798;10.968;2023-01-29T10:56:28;99287.84;;;5.20;56.71
49973;BME280;65693;49.798;10.968;2023-01-29T10:59:05;99281.69;;;5.21;57.01
49973;BME280;65693;49.798;10.968;2023-01-29T11:01:37;99277.25;;;5.23;57.02
49973;BME280;65693;49.798;10.968;2023-01-29T11:04:07;99279.00;;;5.22;57.02
49973;BME280;65693;49.798;10.968;2023-01-29T11:06:35;99264.13;;;5.21;56.93
49973;BME280;65693;49.798;10.968;2023-01-29T11:09:05;99266.72;;;5.23;56.99
49973;BME280;65693;49.798;10.968;2023-01-29T11:11:40;99264.09;;;5.23;56.73
49973;BME280;65693;49.798;10.968;2023-01-29T11:14:12;99264.09;;;5.23;56.90
49973;BME280;65693;49.798;10.968;2023-01-29T11:16:41;99254.50;;;5.22;56.88
49973;BME280;65693;49.798;10.968;2023-01-29T11:19:09;99237.84;;;5.21;56.84
49973;BME280;65693;49.798;10.968;2023-01-29T11:21:50;99237.81;;;5.23;56.72
49973;BME280;65693;49.798;10.968;2023-01-29T11:24:17;99232.56;;;5.23;57.06
49973;BME280;65693;49.798;10.968;2023-01-29T11:26:46;99236.09;;;5.22;56.95
49973;BME280;65693;49.798;10.968;2023-01-29T11:29:37;99221.22;;;5.21;57.06
49973;BME280;65693;49.798;10.968;2023-01-29T11:32:06;99212.44;;;5.22;56.88
49973;BME280;65693;49.798;10.968;2023-01-29T11:34:55;99205.47;;;5.21;56.78
49973;BME280;65693;49.798;10.968;2023-01-29T11:37:22;99205.47;;;5.21;56.91
49973;BME280;65693;49.798;10.968;2023-01-29T11:39:52;99197.59;;;5.21;56.87
49973;BME280;65693;49.798;10.968;2023-01-29T11:42:21;99188.81;;;5.20;56.80
49973;BME280;65693;49.798;10.968;2023-01-29T11:44:48;99184.44;;;5.21;56.89
49973;BME280;65693;49.798;10.968;2023-01-29T11:47:19;99181.81;;;5.21;56.84
49973;BME280;65693;49.798;10.968;2023-01-29T11:49:49;99176.56;;;5.21;56.83
49973;BME280;65693;49.798;10.968;2023-01-29T11:52:18;99165.16;;;5.20;56.91
49973;BME280;65693;49.798;10.968;2023-01-29T11:54:49;99167.78;;;5.20;57.03
49973;BME280;65693;49.798;10.968;2023-01-29T11:57:28;99161.69;;;5.20;56.86
49973;BME280;65693;49.798;10.968;2023-01-29T11:59:57;99156.44;;;5.20;57.13
49973;BME280;65693;49.798;10.968;2023-01-29T12:02:28;99159.94;;;5.19;56.81
49973;BME280;65693;49.798;10.968;2023-01-29T12:04:58;99159.91;;;5.20;56.81
49973;BME280;65693;49.798;10.968;2023-01-29T12:07:25;99161.69;;;5.20;56.84
49973;BME280;65693;49.798;10.968;2023-01-29T12:09:54;99159.06;;;5.20;57.08
49973;BME280;65693;49.798;10.968;2023-01-29T12:12:35;99161.69;;;5.20;56.87
49973;BME280;65693;49.798;10.968;2023-01-29T12:15:20;99153.84;;;5.18;56.71
49973;BME280;65693;49.798;10.968;2023-01-29T12:17:56;99152.03;;;5.20;55.73
49973;BME280;65693;49.798;10.968;2023-01-29T12:20:29;99138.16;;;5.15;52.91
49973;BME280;65693;49.798;10.968;2023-01-29T12:23:03;99137.13;;;5.21;50.00
49973;BME280;65693;49.798;10.968;2023-01-29T12:25:39;99133.75;;;5.16;48.38
49973;BME280;65693;49.798;10.968;2023-01-29T12:28:17;99127.03;;;5.05;47.65
49973;BME280;65693;49.798;10.968;2023-01-29T12:30:54;99125.56;;;4.93;47.59
49973;BME280;65693;49.798;10.968;2023-01-29T12:33:29;99124.81;;;4.90;47.10
49973;BME280;65693;49.798;10.968;2023-01-29T12:36:09;99133.66;;;4.85;47.10
49973;BME280;65693;49.798;10.968;2023-01-29T12:38:38;99122.47;;;4.79;46.46
49973;BME280;65693;49.798;10.968;2023-01-29T12:41:10;99111.91;;;4.80;48.75
49973;BME280;65693;49.798;10.968;2023-01-29T12:43:46;99113.53;;;4.84;49.69
49973;BME280;65693;49.798;10.968;2023-01-29T12:46:19;99105.53;;;4.89;50.49
49973;BME280;65693;49.798;10.968;2023-01-29T12:48:48;99095.84;;;4.91;50.38
49973;BME280;65693;49.798;10.968;2023-01-29T12:51:17;99093.19;;;4.93;49.85
49973;BME280;65693;49.798;10.968;2023-01-29T12:53:49;99087.03;;;4.94;50.29
49973;BME280;65693;49.798;10.968;2023-01-29T12:56:26;99079.06;;;4.97;51.18
49973;BME280;65693;49.798;10.968;2023-01-29T12:58:56;99083.41;;;4.98;51.54
49973;BME280;65693;49.798;10.968;2023-01-29T13:01:27;99086.03;;;4.98;51.83
49973;BME280;65693;49.798;10.968;2023-01-29T13:03:58;99080.78;;;4.98;52.11
49973;BME280;65693;49.798;10.968;2023-01-29T13:06:30;99079.88;;;4.99;52.01
49973;BME280;65693;49.798;10.968;2023-01-29T13:09:00;99083.41;;;4.98;52.11
49973;BME280;65693;49.798;10.968;2023-01-29T13:11:34;99075.53;;;4.98;52.62
49973;BME280;65693;49.798;10.968;2023-01-29T13:14:08;99079.88;;;4.99;52.70
49973;BME280;65693;49.798;10.968;2023-01-29T13:16:42;99065.84;;;5.00;52.94
49973;BME280;65693;49.798;10.968;2023-01-29T13:19:18;99060.56;;;5.02;53.34